sensor_id;sensor_type;location;lat;lon;timestamp;pressure;altitude;pressure_sealevel;temperature;humidity
12178;BME280;6152;48.728;9.256;2022-08-21T00:00:58;97202.47;;;15.07;100.00
12178;BME280;6152;48.728;9.256;2022-08-21T00:03:26;97201.06;;;15.03;100.00
12178;BME280;6152;48.728;9.256;2022-08-21T00:05:52;97204.88;;;14.99;100.00
12178;BME280;6152;48.728;9.256;2022-08-21T00:08:20;97199.88;;;14.96;100.00
12178;BME280;6152;48.728;9.256;2022-08-21T00:10:47;97201.06;;;14.92;100.00
12178;BME280;6152;48.728;9.256;2022-08-21T00:13:14;97202.00;;;14.91;100.00
12178;BME280;6152;48.728;9.256;2022-08-21T00:15:41;97197.22;;;14.85;100.00
12178;BME280;6152;48.728;9.256;2022-08-21T00:18:09;97188.88;;;14.80;100.00
12178;BME280;6152;48.728;9.256;2022-08-21T00:20:38;97190.88;;;14.76;100.00
12178;BME280;6152;48.728;9.256;2022-08-21T00:23:04;97201.75;;;14.72;100.00
12178;BME280;6152;48.728;9.256;2022-08-21T00:25:31;97189.69;;;14.69;100.00
12178;BME280;6152;48.728;9.256;2022-08-21T00:27:58;97189.22;;;14.64;100.00
12178;BME280;6152;48.728;9.256;2022-08-21T00:30:25;97189.44;;;14.61;100.00
12178;BME280;6152;48.728;9.256;2022-08-21T00:32:53;97186.94;;;14.59;100.00
12178;BME280;6152;48.728;9.256;2022-08-21T00:35:23;97189.88;;;14.55;100.00
12178;BME280;6152;48.728;9.256;2022-08-21T00:37:49;97181.56;;;14.50;100.00
12178;BME280;6152;48.728;9.256;2022-08-21T00:40:19;97185.47;;;14.44;100.00
12178;BME280;6152;48.728;9.256;2022-08-21T00:42:45;97185.81;;;14.40;100.00
12178;BME280;6152;48.728;9.256;2022-08-21T00:45:12;97190.44;;;14.36;100.00
12178;BME280;6152;48.728;9.256;2022-08-21T00:47:39;97193.25;;;14.33;100.00
12178;BME280;6152;48.728;9.256;2022-08-21T00:50:07;97194.44;;;14.29;100.00
12178;BME280;6152;48.728;9.256;2022-08-21T00:52:35;97187.75;;;14.25;100.00
12178;BME280;6152;48.728;9.256;2022-08-21T00:55:03;97185.47;;;14.21;100.00
12178;BME280;6152;48.728;9.256;2022-08-21T00:57:37;97184.84;;;14.17;100.00
12178;BME280;6152;48.728;9.256;2022-08-21T01:00:10;97187.00;;;14.12;100.00
12178;BME280;6152;48.728;9.256;2022-08-21T01:02:37;97182.91;;;14.08;100.00
12178;BME280;6152;48.728;9.256;2022-08-21T01:05:04;97180.31;;;14.08;100.00
12178;BME280;6152;48.728;9.256;2022-08-21T01:07:30;97185.53;;;14.08;100.00
12178;BME280;6152;48.728;9.256;2022-08-21T01:09:57;97175.91;;;14.08;100.00
12178;BME280;6152;48.728;9.256;2022-08-21T01:12:24;97179.47;;;14.07;100.00
12178;BME280;6152;48.728;9.256;2022-08-21T01:14:51;97177.69;;;14.08;100.00
12178;BME280;6152;48.728;9.256;2022-08-21T01:17:18;97181.25;;;14.07;100.00
12178;BME280;6152;48.728;9.256;2022-08-21T01:19:44;97177.59;;;14.09;100.00
12178;BME280;6152;48.728;9.256;2022-08-21T01:22:11;97178.63;;;14.07;100.00
12178;BME280;6152;48.728;9.256;2022-08-21T01:24:37;97178.75;;;14.05;100.00
12178;BME280;6152;48.728;9.256;2022-08-21T01:27:04;97179.81;;;14.03;100.00
12178;BME280;6152;48.728;9.256;2022-08-21T01:29:44;97178.25;;;14.00;100.00
12178;BME280;6152;48.728;9.256;2022-08-21T01:32:14;97173.97;;;13.99;100.00
12178;BME280;6152;48.728;9.256;2022-08-21T01:34:43;97178.47;;;13.97;100.00
12178;BME280;6152;48.728;9.256;2022-08-21T01:37:10;97175.38;;;13.92;100.00
12178;BME280;6152;48.728;9.256;2022-08-21T01:39:37;97180.00;;;13.89;100.00
12178;BME280;6152;48.728;9.256;2022-08-21T01:42:04;97173.41;;;13.83;100.00
12178;BME280;6152;48.728;9.256;2022-08-21T01:44:31;97173.75;;;13.79;100.00
12178;BME280;6152;48.728;9.256;2022-08-21T01:46:59;97173.97;;;13.76;100.00
12178;BME280;6152;48.728;9.256;2022-08-21T01:49:27;97172.31;;;13.75;100.00
12178;BME280;6152;48.728;9.256;2022-08-21T01:51:53;97168.94;;;13.73;100.00
12178;BME280;6152;48.728;9.256;2022-08-21T01:54:20;97163.84;;;13.71;100.00
12178;BME280;6152;48.728;9.256;2022-08-21T01:56:49;97171.06;;;13.68;100.00
12178;BME280;6152;48.728;9.256;2022-08-21T01:59:15;97168.69;;;13.64;100.00
12178;BME280;6152;48.728;9.256;2022-08-21T02:01:42;97158.66;;;13.58;100.00
12178;BME280;6152;48.728;9.256;2022-08-21T02:04:09;97155.41;;;13.55;100.00
12178;BME280;6152;48.728;9.256;2022-08-21T02:06:36;97161.59;;;13.54;100.00
12178;BME280;6152;48.728;9.256;2022-08-21T02:09:07;97157.44;;;13.51;100.00
12178;BME280;6152;48.728;9.256;2022-08-21T02:11:34;97154.81;;;13.51;100.00
12178;BME280;6152;48.728;9.256;2022-08-21T02:14:01;97146.25;;;13.49;100.00
12178;BME280;6152;48.728;9.256;2022-08-21T02:16:27;97155.25;;;13.45;100.00
12178;BME280;6152;48.728;9.256;2022-08-21T02:18:53;97150.22;;;13.42;100.00
12178;BME280;6152;48.728;9.256;2022-08-21T02:21:19;97153.16;;;13.38;100.00
12178;BME280;6152;48.728;9.256;2022-08-21T02:23:45;97155.06;;;13.36;100.00
12178;BME280;6152;48.728;9.256;2022-08-21T02:26:12;97152.56;;;13.34;100.00
12178;BME280;6152;48.728;9.256;2022-08-21T02:28:39;97152.91;;;13.30;100.00
12178;BME280;6152;48.728;9.256;2022-08-21T02:31:05;97147.75;;;13.28;100.00
12178;BME280;6152;48.728;9.256;2022-08-21T02:33:32;97146.31;;;13.24;100.00
12178;BME280;6152;48.728;9.256;2022-08-21T02:35:59;97146.53;;;13.21;100.00
12178;BME280;6152;48.728;9.256;2022-08-21T02:38:29;97150.09;;;13.20;100.00
12178;BME280;6152;48.728;9.256;2022-08-21T02:40:56;97147.38;;;13.22;100.00
12178;BME280;6152;48.728;9.256;2022-08-21T02:43:24;97149.13;;;13.21;100.00
12178;BME280;6152;48.728;9.256;2022-08-21T02:45:52;97148.19;;;13.22;100.00
12178;BME280;6152;48.728;9.256;2022-08-21T02:48:21;97151.97;;;13.18;100.00
12178;BME280;6152;48.728;9.256;2022-08-21T02:50:53;97147.91;;;13.14;100.00
12178;BME280;6152;48.728;9.256;2022-08-21T02:53:20;97155.97;;;13.11;100.00
12178;BME280;6152;48.728;9.256;2022-08-21T02:55:48;97154.47;;;13.07;100.00
12178;BME280;6152;48.728;9.256;2022-08-21T02:58:16;97151.13;;;13.05;100.00
12178;BME280;6152;48.728;9.256;2022-08-21T03:00:43;97146.13;;;13.02;100.00
12178;BME280;6152;48.728;9.256;2022-08-21T03:03:10;97157.63;;;12.99;100.00
12178;BME280;6152;48.728;9.256;2022-08-21T03:05:37;97153.44;;;12.97;100.00
12178;BME280;6152;48.728;9.256;2022-08-21T03:08:06;97150.09;;;12.95;100.00
12178;BME280;6152;48.728;9.256;2022-08-21T03:10:37;97152.00;;;12.93;100.00
12178;BME280;6152;48.728;9.256;2022-08-21T03:13:04;97156.59;;;12.89;100.00
12178;BME280;6152;48.728;9.256;2022-08-21T03:15:30;97150.53;;;12.89;100.00
12178;BME280;6152;48.728;9.256;2022-08-21T03:17:56;97156.78;;;12.86;100.00
12178;BME280;6152;48.728;9.256;2022-08-21T03:20:25;97151.69;;;12.85;100.00
12178;BME280;6152;48.728;9.256;2022-08-21T03:22:52;97147.53;;;12.82;100.00
12178;BME280;6152;48.728;9.256;2022-08-21T03:25:19;97150.22;;;12.81;100.00
12178;BME280;6152;48.728;9.256;2022-08-21T03:27:46;97146.78;;;12.80;100.00
12178;BME280;6152;48.728;9.256;2022-08-21T03:30:15;97144.47;;;12.76;100.00
12178;BME280;6152;48.728;9.256;2022-08-21T03:32:42;97143.03;;;12.72;100.00
12178;BME280;6152;48.728;9.256;2022-08-21T03:35:08;97150.94;;;12.70;100.00
12178;BME280;6152;48.728;9.256;2022-08-21T03:37:35;97150.94;;;12.70;100.00
12178;BME280;6152;48.728;9.256;2022-08-21T03:40:04;97158.78;;;12.70;100.00
12178;BME280;6152;48.728;9.256;2022-08-21T03:42:30;97156.38;;;12.67;100.00
12178;BME280;6152;48.728;9.256;2022-08-21T03:44:56;97159.94;;;12.66;100.00
12178;BME280;6152;48.728;9.256;2022-08-21T03:47:23;97159.31;;;12.62;100.00
12178;BME280;6152;48.728;9.256;2022-08-21T03:49:49;97165.50;;;12.61;100.00
12178;BME280;6152;48.728;9.256;2022-08-21T03:52:15;97163.06;;;12.58;100.00
12178;BME280;6152;48.728;9.256;2022-08-21T03:54:43;97163.25;;;12.55;100.00
12178;BME280;6152;48.728;9.256;2022-08-21T03:57:09;97172.88;;;12.55;100.00
12178;BME280;6152;48.728;9.256;2022-08-21T03:59:36;97163.47;;;12.52;100.00
12178;BME280;6152;48.728;9.256;2022-08-21T04:02:05;97167.06;;;12.51;100.00
12178;BME280;6152;48.728;9.256;2022-08-21T04:04:32;97167.97;;;12.50;100.00
12178;BME280;6152;48.728;9.256;2022-08-21T04:06:59;97161.84;;;12.51;100.00
12178;BME280;6152;48.728;9.256;2022-08-21T04:09:26;97162.84;;;12.49;100.00
12178;BME280;6152;48.728;9.256;2022-08-21T04:11:52;97167.06;;;12.51;100.00
12178;BME280;6152;48.728;9.256;2022-08-21T04:14:19;97167.22;;;12.48;100.00
12178;BME280;6152;48.728;9.256;2022-08-21T04:16:46;97167.13;;;12.50;100.00
12178;BME280;6152;48.728;9.256;2022-08-21T04:19:12;97169.13;;;12.46;100.00
12178;BME280;6152;48.728;9.256;2022-08-21T04:21:39;97167.44;;;12.45;100.00
12178;BME280;6152;48.728;9.256;2022-08-21T04:24:10;97171.00;;;12.44;100.00
12178;BME280;6152;48.728;9.256;2022-08-21T04:26:37;97178.09;;;12.42;100.00
12178;BME280;6152;48.728;9.256;2022-08-21T04:29:04;97174.56;;;12.43;100.00
12178;BME280;6152;48.728;9.256;2022-08-21T04:31:33;97189.28;;;12.44;100.00
12178;BME280;6152;48.728;9.256;2022-08-21T04:34:00;97183.94;;;12.46;100.00
12178;BME280;6152;48.728;9.256;2022-08-21T04:36:26;97188.13;;;12.48;100.00
12178;BME280;6152;48.728;9.256;2022-08-21T04:38:52;97191.47;;;12.50;100.00
12178;BME280;6152;48.728;9.256;2022-08-21T04:41:18;97192.81;;;12.56;100.00
12178;BME280;6152;48.728;9.256;2022-08-21T04:43:45;97192.72;;;12.57;100.00
12178;BME280;6152;48.728;9.256;2022-08-21T04:46:11;97192.72;;;12.57;100.00
12178;BME280;6152;48.728;9.256;2022-08-21T04:48:37;97190.13;;;12.57;100.00
12178;BME280;6152;48.728;9.256;2022-08-21T04:54:06;97200.25;;;12.62;100.00
12178;BME280;6152;48.728;9.256;2022-08-21T04:56:41;97202.56;;;12.66;100.00
12178;BME280;6152;48.728;9.256;2022-08-21T04:59:17;97204.84;;;12.71;100.00
12178;BME280;6152;48.728;9.256;2022-08-21T05:01:45;97200.47;;;12.72;100.00
12178;BME280;6152;48.728;9.256;2022-08-21T05:04:14;97203.81;;;12.74;100.00
12178;BME280;6152;48.728;9.256;2022-08-21T05:06:44;97201.91;;;12.76;100.00
12178;BME280;6152;48.728;9.256;2022-08-21T05:09:14;97200.97;;;12.77;100.00
12178;BME280;6152;48.728;9.256;2022-08-21T05:11:41;97201.72;;;12.79;100.00
12178;BME280;6152;48.728;9.256;2022-08-21T05:14:09;97196.50;;;12.79;100.00
12178;BME280;6152;48.728;9.256;2022-08-21T05:16:35;97200.69;;;12.81;100.00
12178;BME280;6152;48.728;9.256;2022-08-21T05:19:01;97204.84;;;12.84;100.00
12178;BME280;6152;48.728;9.256;2022-08-21T05:21:27;97207.16;;;12.88;100.00
12178;BME280;6152;48.728;9.256;2022-08-21T05:23:53;97205.81;;;12.95;100.00
12178;BME280;6152;48.728;9.256;2022-08-21T05:26:19;97216.66;;;13.02;100.00
12178;BME280;6152;48.728;9.256;2022-08-21T05:28:46;97219.91;;;13.05;100.00
12178;BME280;6152;48.728;9.256;2022-08-21T05:31:12;97225.44;;;13.13;100.00
12178;BME280;6152;48.728;9.256;2022-08-21T05:33:38;97222.66;;;13.17;100.00
12178;BME280;6152;48.728;9.256;2022-08-21T05:36:04;97221.59;;;13.19;100.00
12178;BME280;6152;48.728;9.256;2022-08-21T05:38:30;97224.63;;;13.26;100.00
12178;BME280;6152;48.728;9.256;2022-08-21T05:40:56;97216.34;;;13.32;100.00
12178;BME280;6152;48.728;9.256;2022-08-21T05:43:22;97221.03;;;13.39;100.00
12178;BME280;6152;48.728;9.256;2022-08-21T05:45:49;97219.66;;;13.46;100.00
12178;BME280;6152;48.728;9.256;2022-08-21T05:48:17;97230.31;;;13.56;100.00
12178;BME280;6152;48.728;9.256;2022-08-21T05:50:45;97228.09;;;13.62;100.00
12178;BME280;6152;48.728;9.256;2022-08-21T05:53:13;97226.72;;;13.70;100.00
12178;BME280;6152;48.728;9.256;2022-08-21T05:55:39;97236.53;;;13.79;100.00
12178;BME280;6152;48.728;9.256;2022-08-21T05:58:06;97223.94;;;13.84;100.00
12178;BME280;6152;48.728;9.256;2022-08-21T06:00:32;97227.69;;;13.92;100.00
12178;BME280;6152;48.728;9.256;2022-08-21T06:02:59;97229.75;;;14.00;100.00
12178;BME280;6152;48.728;9.256;2022-08-21T06:05:26;97231.94;;;14.06;100.00
12178;BME280;6152;48.728;9.256;2022-08-21T06:07:52;97226.97;;;14.14;100.00
12178;BME280;6152;48.728;9.256;2022-08-21T06:10:19;97228.94;;;14.23;100.00
12178;BME280;6152;48.728;9.256;2022-08-21T06:12:45;97220.38;;;14.32;100.00
12178;BME280;6152;48.728;9.256;2022-08-21T06:15:11;97227.59;;;14.41;100.00
12178;BME280;6152;48.728;9.256;2022-08-21T06:17:37;97226.19;;;14.48;100.00
12178;BME280;6152;48.728;9.256;2022-08-21T06:20:04;97233.25;;;14.59;100.00
12178;BME280;6152;48.728;9.256;2022-08-21T06:22:31;97233.63;;;14.65;100.00
12178;BME280;6152;48.728;9.256;2022-08-21T06:24:57;97235.06;;;14.70;100.00
12178;BME280;6152;48.728;9.256;2022-08-21T06:27:23;97228.53;;;14.75;100.00
12178;BME280;6152;48.728;9.256;2022-08-21T06:29:49;97225.56;;;14.80;100.00
12178;BME280;6152;48.728;9.256;2022-08-21T06:32:15;97227.72;;;14.86;100.00
12178;BME280;6152;48.728;9.256;2022-08-21T06:34:42;97224.63;;;14.92;100.00
12178;BME280;6152;48.728;9.256;2022-08-21T06:37:08;97229.16;;;15.01;100.00
12178;BME280;6152;48.728;9.256;2022-08-21T06:39:35;97228.69;;;15.07;100.00
12178;BME280;6152;48.728;9.256;2022-08-21T06:42:01;97230.13;;;15.11;100.00
12178;BME280;6152;48.728;9.256;2022-08-21T06:44:28;97227.53;;;15.22;100.00
12178;BME280;6152;48.728;9.256;2022-08-21T06:46:54;97233.97;;;15.29;100.00
12178;BME280;6152;48.728;9.256;2022-08-21T06:49:21;97228.97;;;15.37;100.00
12178;BME280;6152;48.728;9.256;2022-08-21T06:51:47;97231.50;;;15.50;100.00
12178;BME280;6152;48.728;9.256;2022-08-21T06:54:13;97231.09;;;15.65;100.00
12178;BME280;6152;48.728;9.256;2022-08-21T06:56:39;97228.97;;;15.71;100.00
12178;BME280;6152;48.728;9.256;2022-08-21T06:59:05;97227.63;;;15.76;100.00
12178;BME280;6152;48.728;9.256;2022-08-21T07:01:32;97230.75;;;15.81;100.00
12178;BME280;6152;48.728;9.256;2022-08-21T07:03:58;97230.59;;;15.94;100.00
12178;BME280;6152;48.728;9.256;2022-08-21T07:06:25;97229.88;;;16.03;100.00
12178;BME280;6152;48.728;9.256;2022-08-21T07:08:51;97231.25;;;16.07;100.00
12178;BME280;6152;48.728;9.256;2022-08-21T07:11:20;97223.59;;;16.15;100.00
12178;BME280;6152;48.728;9.256;2022-08-21T07:13:46;97231.19;;;16.29;100.00
12178;BME280;6152;48.728;9.256;2022-08-21T07:16:13;97226.84;;;16.39;100.00
12178;BME280;6152;48.728;9.256;2022-08-21T07:18:39;97220.84;;;16.48;100.00
12178;BME280;6152;48.728;9.256;2022-08-21T07:21:07;97228.84;;;16.58;100.00
12178;BME280;6152;48.728;9.256;2022-08-21T07:23:43;97214.94;;;16.67;100.00
12178;BME280;6152;48.728;9.256;2022-08-21T07:26:10;97219.41;;;16.76;100.00
12178;BME280;6152;48.728;9.256;2022-08-21T07:28:37;97218.41;;;16.88;100.00
12178;BME280;6152;48.728;9.256;2022-08-21T07:31:03;97217.88;;;16.94;100.00
12178;BME280;6152;48.728;9.256;2022-08-21T07:33:32;97221.53;;;17.03;100.00
12178;BME280;6152;48.728;9.256;2022-08-21T07:36:00;97219.91;;;17.11;100.00
12178;BME280;6152;48.728;9.256;2022-08-21T07:38:26;97214.19;;;17.27;100.00
12178;BME280;6152;48.728;9.256;2022-08-21T07:40:55;97212.81;;;17.33;100.00
12178;BME280;6152;48.728;9.256;2022-08-21T07:43:21;97217.16;;;17.43;100.00
12178;BME280;6152;48.728;9.256;2022-08-21T07:45:48;97211.81;;;17.54;100.00
12178;BME280;6152;48.728;9.256;2022-08-21T07:48:15;97213.81;;;17.72;100.00
12178;BME280;6152;48.728;9.256;2022-08-21T07:50:42;97214.13;;;17.88;100.00
12178;BME280;6152;48.728;9.256;2022-08-21T07:53:09;97219.28;;;17.99;100.00
12178;BME280;6152;48.728;9.256;2022-08-21T07:55:35;97212.53;;;18.15;100.00
12178;BME280;6152;48.728;9.256;2022-08-21T07:58:01;97214.31;;;18.34;100.00
12178;BME280;6152;48.728;9.256;2022-08-21T08:00:28;97217.69;;;18.55;100.00
12178;BME280;6152;48.728;9.256;2022-08-21T08:02:55;97203.41;;;18.67;100.00
12178;BME280;6152;48.728;9.256;2022-08-21T08:05:24;97215.56;;;18.88;99.65
12178;BME280;6152;48.728;9.256;2022-08-21T08:07:51;97209.94;;;19.10;98.26
12178;BME280;6152;48.728;9.256;2022-08-21T08:10:18;97208.09;;;19.30;98.11
12178;BME280;6152;48.728;9.256;2022-08-21T08:12:45;97207.63;;;19.53;97.45
12178;BME280;6152;48.728;9.256;2022-08-21T08:15:16;97212.22;;;19.79;93.61
12178;BME280;6152;48.728;9.256;2022-08-21T08:17:43;97216.78;;;20.04;92.99
12178;BME280;6152;48.728;9.256;2022-08-21T08:20:10;97200.41;;;20.18;89.68
12178;BME280;6152;48.728;9.256;2022-08-21T08:22:38;97208.47;;;20.44;87.84
12178;BME280;6152;48.728;9.256;2022-08-21T08:25:06;97195.28;;;20.70;85.94
12178;BME280;6152;48.728;9.256;2022-08-21T08:27:33;97197.16;;;20.95;82.54
12178;BME280;6152;48.728;9.256;2022-08-21T08:29:59;97196.34;;;21.20;84.53
12178;BME280;6152;48.728;9.256;2022-08-21T08:32:25;97189.63;;;21.67;82.52
12178;BME280;6152;48.728;9.256;2022-08-21T08:34:51;97185.44;;;22.07;79.31
12178;BME280;6152;48.728;9.256;2022-08-21T08:37:19;97193.47;;;22.39;74.13
12178;BME280;6152;48.728;9.256;2022-08-21T08:39:46;97187.06;;;22.82;72.72
12178;BME280;6152;48.728;9.256;2022-08-21T08:42:25;97179.94;;;23.38;69.73
12178;BME280;6152;48.728;9.256;2022-08-21T08:44:59;97174.25;;;24.95;62.29
12178;BME280;6152;48.728;9.256;2022-08-21T08:47:27;97166.63;;;26.94;51.41
12178;BME280;6152;48.728;9.256;2022-08-21T08:50:03;97156.13;;;28.76;45.50
12178;BME280;6152;48.728;9.256;2022-08-21T08:52:35;97157.44;;;31.15;41.94
12178;BME280;6152;48.728;9.256;2022-08-21T08:55:30;97148.41;;;32.37;36.95
12178;BME280;6152;48.728;9.256;2022-08-21T08:57:58;97138.66;;;34.10;33.78
12178;BME280;6152;48.728;9.256;2022-08-21T09:00:25;97127.81;;;35.50;31.97
12178;BME280;6152;48.728;9.256;2022-08-21T09:02:57;97136.06;;;35.98;31.20
12178;BME280;6152;48.728;9.256;2022-08-21T09:11:02;97122.16;;;38.99;25.28
12178;BME280;6152;48.728;9.256;2022-08-21T09:24:37;97103.81;;;39.45;23.56
12178;BME280;6152;48.728;9.256;2022-08-21T09:27:15;97112.16;;;39.88;23.18
12178;BME280;6152;48.728;9.256;2022-08-21T09:29:45;97105.72;;;40.67;23.03
12178;BME280;6152;48.728;9.256;2022-08-21T09:32:24;97100.03;;;41.74;21.56
12178;BME280;6152;48.728;9.256;2022-08-21T09:37:34;97094.53;;;42.91;19.01
12178;BME280;6152;48.728;9.256;2022-08-21T09:40:02;97090.81;;;43.33;17.35
12178;BME280;6152;48.728;9.256;2022-08-21T09:42:30;97093.59;;;43.14;17.33
12178;BME280;6152;48.728;9.256;2022-08-21T09:45:16;97098.91;;;43.24;16.90
12178;BME280;6152;48.728;9.256;2022-08-21T09:47:43;97090.63;;;41.85;18.99
12178;BME280;6152;48.728;9.256;2022-08-21T09:50:17;97086.53;;;42.62;18.19
12178;BME280;6152;48.728;9.256;2022-08-21T09:52:48;97090.22;;;42.53;17.05
12178;BME280;6152;48.728;9.256;2022-08-21T09:55:31;97078.13;;;41.79;18.03
12178;BME280;6152;48.728;9.256;2022-08-21T09:58:18;97082.94;;;41.63;18.21
12178;BME280;6152;48.728;9.256;2022-08-21T10:00:45;97080.38;;;42.14;17.45
12178;BME280;6152;48.728;9.256;2022-08-21T10:03:21;97079.06;;;43.60;16.55
12178;BME280;6152;48.728;9.256;2022-08-21T10:06:19;97075.16;;;43.34;16.53
12178;BME280;6152;48.728;9.256;2022-08-21T10:08:46;97076.66;;;43.12;17.05
12178;BME280;6152;48.728;9.256;2022-08-21T10:11:14;97067.91;;;43.10;16.21
12178;BME280;6152;48.728;9.256;2022-08-21T10:13:52;97067.78;;;43.61;16.44
12178;BME280;6152;48.728;9.256;2022-08-21T10:16:32;97066.59;;;44.53;15.87
12178;BME280;6152;48.728;9.256;2022-08-21T10:19:20;97073.25;;;45.27;15.50
12178;BME280;6152;48.728;9.256;2022-08-21T10:24:41;97065.69;;;45.72;14.61
12178;BME280;6152;48.728;9.256;2022-08-21T10:29:51;97058.03;;;46.51;14.54
12178;BME280;6152;48.728;9.256;2022-08-21T10:32:37;97060.13;;;44.71;14.95
12178;BME280;6152;48.728;9.256;2022-08-21T10:35:28;97052.66;;;44.27;15.42
12178;BME280;6152;48.728;9.256;2022-08-21T10:41:40;97046.63;;;45.45;14.81
12178;BME280;6152;48.728;9.256;2022-08-21T10:44:35;97044.69;;;46.02;13.69
12178;BME280;6152;48.728;9.256;2022-08-21T10:47:32;97042.59;;;46.59;13.53
12178;BME280;6152;48.728;9.256;2022-08-21T10:55:56;97036.44;;;46.10;14.20
12178;BME280;6152;48.728;9.256;2022-08-21T10:58:30;97032.94;;;45.22;13.62
12178;BME280;6152;48.728;9.256;2022-08-21T11:04:25;97025.41;;;43.81;14.45
12178;BME280;6152;48.728;9.256;2022-08-21T11:07:02;97035.38;;;44.27;14.36
12178;BME280;6152;48.728;9.256;2022-08-21T11:09:29;97032.56;;;44.04;14.89
12178;BME280;6152;48.728;9.256;2022-08-21T11:14:48;97031.03;;;44.12;14.76
12178;BME280;6152;48.728;9.256;2022-08-21T11:17:21;97023.03;;;45.13;13.94
12178;BME280;6152;48.728;9.256;2022-08-21T11:20:07;97017.75;;;45.73;13.79
12178;BME280;6152;48.728;9.256;2022-08-21T11:22:54;97021.69;;;46.06;13.08
12178;BME280;6152;48.728;9.256;2022-08-21T11:25:26;97017.91;;;45.20;14.06
12178;BME280;6152;48.728;9.256;2022-08-21T11:28:05;97023.69;;;45.18;14.31
12178;BME280;6152;48.728;9.256;2022-08-21T11:30:44;97012.41;;;45.77;13.89
12178;BME280;6152;48.728;9.256;2022-08-21T11:33:35;97013.78;;;46.13;14.58
12178;BME280;6152;48.728;9.256;2022-08-21T11:36:44;97007.41;;;46.82;14.06
12178;BME280;6152;48.728;9.256;2022-08-21T11:39:23;97001.63;;;47.12;14.17
12178;BME280;6152;48.728;9.256;2022-08-21T11:45:23;97000.06;;;46.94;12.51
12178;BME280;6152;48.728;9.256;2022-08-21T11:48:10;97005.66;;;47.24;12.81
12178;BME280;6152;48.728;9.256;2022-08-21T11:50:42;97003.69;;;47.62;12.00
12178;BME280;6152;48.728;9.256;2022-08-21T11:53:16;96996.69;;;45.20;14.32
12178;BME280;6152;48.728;9.256;2022-08-21T11:55:54;96995.81;;;46.16;14.45
12178;BME280;6152;48.728;9.256;2022-08-21T11:58:27;97003.38;;;44.97;13.57
12178;BME280;6152;48.728;9.256;2022-08-21T12:00:59;96999.00;;;43.17;15.13
12178;BME280;6152;48.728;9.256;2022-08-21T12:03:31;96990.75;;;42.06;16.16
12178;BME280;6152;48.728;9.256;2022-08-21T12:06:08;96989.56;;;42.12;16.17
12178;BME280;6152;48.728;9.256;2022-08-21T12:08:37;96989.09;;;42.43;16.02
12178;BME280;6152;48.728;9.256;2022-08-21T12:11:07;96988.44;;;43.10;16.19
12178;BME280;6152;48.728;9.256;2022-08-21T12:13:40;96982.75;;;43.07;15.46
12178;BME280;6152;48.728;9.256;2022-08-21T12:16:12;96976.59;;;42.69;15.32
12178;BME280;6152;48.728;9.256;2022-08-21T12:18:40;96980.44;;;42.36;15.73
12178;BME280;6152;48.728;9.256;2022-08-21T12:21:25;96984.66;;;42.47;15.49
12178;BME280;6152;48.728;9.256;2022-08-21T12:27:00;96980.75;;;41.78;17.51
12178;BME280;6152;48.728;9.256;2022-08-21T12:29:32;96967.84;;;40.94;16.69
12178;BME280;6152;48.728;9.256;2022-08-21T12:32:02;96978.16;;;38.67;18.00
12178;BME280;6152;48.728;9.256;2022-08-21T12:34:37;96974.81;;;37.07;20.50
12178;BME280;6152;48.728;9.256;2022-08-21T12:37:24;96972.81;;;34.78;21.87
12178;BME280;6152;48.728;9.256;2022-08-21T12:39:57;96977.44;;;32.91;24.31
12178;BME280;6152;48.728;9.256;2022-08-21T12:42:37;96968.31;;;32.22;26.06
12178;BME280;6152;48.728;9.256;2022-08-21T12:45:14;96971.31;;;31.73;27.02
12178;BME280;6152;48.728;9.256;2022-08-21T12:50:45;96971.84;;;30.61;27.65
12178;BME280;6152;48.728;9.256;2022-08-21T12:53:30;96973.63;;;30.17;29.01
12178;BME280;6152;48.728;9.256;2022-08-21T12:56:02;96969.69;;;29.95;29.93
12178;BME280;6152;48.728;9.256;2022-08-21T12:58:30;96966.22;;;29.56;29.77
12178;BME280;6152;48.728;9.256;2022-08-21T13:01:24;96967.72;;;28.95;31.53
12178;BME280;6152;48.728;9.256;2022-08-21T13:03:54;96971.00;;;28.90;30.46
12178;BME280;6152;48.728;9.256;2022-08-21T13:06:23;96976.63;;;28.76;29.96
12178;BME280;6152;48.728;9.256;2022-08-21T13:08:55;96979.69;;;28.66;28.75
12178;BME280;6152;48.728;9.256;2022-08-21T13:11:24;96973.56;;;28.39;30.02
12178;BME280;6152;48.728;9.256;2022-08-21T13:13:51;96973.19;;;28.29;29.90
12178;BME280;6152;48.728;9.256;2022-08-21T13:16:22;96970.25;;;27.91;29.60
12178;BME280;6152;48.728;9.256;2022-08-21T13:19:02;96964.50;;;27.81;29.98
12178;BME280;6152;48.728;9.256;2022-08-21T13:21:32;96973.97;;;27.84;31.76
12178;BME280;6152;48.728;9.256;2022-08-21T13:24:20;96969.03;;;27.81;31.21
12178;BME280;6152;48.728;9.256;2022-08-21T13:26:48;96975.78;;;27.77;29.49
12178;BME280;6152;48.728;9.256;2022-08-21T13:29:19;96978.47;;;27.70;31.21
12178;BME280;6152;48.728;9.256;2022-08-21T13:31:58;96971.44;;;27.63;32.19
12178;BME280;6152;48.728;9.256;2022-08-21T13:34:29;96964.84;;;27.58;31.93
12178;BME280;6152;48.728;9.256;2022-08-21T13:36:58;96973.81;;;27.38;32.37
12178;BME280;6152;48.728;9.256;2022-08-21T13:39:26;96968.69;;;27.36;32.41
12178;BME280;6152;48.728;9.256;2022-08-21T13:41:55;96959.03;;;27.42;32.87
12178;BME280;6152;48.728;9.256;2022-08-21T13:44:41;96965.59;;;27.33;32.24
12178;BME280;6152;48.728;9.256;2022-08-21T13:47:10;96961.66;;;27.22;33.13
12178;BME280;6152;48.728;9.256;2022-08-21T13:49:42;96972.09;;;27.17;32.64
12178;BME280;6152;48.728;9.256;2022-08-21T13:52:22;96969.22;;;27.12;32.19
12178;BME280;6152;48.728;9.256;2022-08-21T13:57:29;96954.50;;;26.82;32.85
12178;BME280;6152;48.728;9.256;2022-08-21T14:00:19;96956.28;;;26.75;34.69
12178;BME280;6152;48.728;9.256;2022-08-21T14:02:49;96962.91;;;26.79;33.44
12178;BME280;6152;48.728;9.256;2022-08-21T14:05:45;96959.66;;;26.90;32.26
12178;BME280;6152;48.728;9.256;2022-08-21T14:08:14;96956.97;;;26.83;32.12
12178;BME280;6152;48.728;9.256;2022-08-21T14:10:49;96954.31;;;26.90;33.33
12178;BME280;6152;48.728;9.256;2022-08-21T14:19:17;96951.06;;;26.94;33.14
12178;BME280;6152;48.728;9.256;2022-08-21T14:21:43;96954.31;;;26.90;32.80